sensor_id;sensor_type;location;lat;lon;timestamp;P1;durP1;ratioP1;P2;durP2;ratioP2
54177;SDS011;40085;53.004;6.770;2023-07-08T00:01:42;5.57;;;3.70;;
54177;SDS011;40085;53.004;6.770;2023-07-08T00:04:07;6.13;;;2.90;;
54177;SDS011;40085;53.004;6.770;2023-07-08T00:06:34;5.93;;;3.50;;
54177;SDS011;40085;53.004;6.770;2023-07-08T00:09:00;4.85;;;3.75;;
54177;SDS011;40085;53.004;6.770;2023-07-08T00:11:26;9.55;;;3.83;;
54177;SDS011;40085;53.004;6.770;2023-07-08T00:13:53;4.78;;;3.78;;
54177;SDS011;40085;53.004;6.770;2023-07-08T00:16:19;4.85;;;3.10;;
54177;SDS011;40085;53.004;6.770;2023-07-08T00:18:45;6.10;;;3.17;;
54177;SDS011;40085;53.004;6.770;2023-07-08T00:21:12;6.70;;;3.53;;
54177;SDS011;40085;53.004;6.770;2023-07-08T00:23:40;6.13;;;3.78;;
54177;SDS011;40085;53.004;6.770;2023-07-08T00:26:21;6.18;;;3.75;;
54177;SDS011;40085;53.004;6.770;2023-07-08T00:28:49;5.30;;;3.90;;
54177;SDS011;40085;53.004;6.770;2023-07-08T00:31:15;4.63;;;3.63;;
54177;SDS011;40085;53.004;6.770;2023-07-08T00:33:41;4.82;;;3.65;;
54177;SDS011;40085;53.004;6.770;2023-07-08T00:36:12;6.63;;;4.07;;
54177;SDS011;40085;53.004;6.770;2023-07-08T00:38:40;4.03;;;3.40;;
54177;SDS011;40085;53.004;6.770;2023-07-08T00:41:14;5.60;;;3.90;;
54177;SDS011;40085;53.004;6.770;2023-07-08T00:44:02;7.38;;;4.03;;
54177;SDS011;40085;53.004;6.770;2023-07-08T00:48:59;8.73;;;3.75;;
54177;SDS011;40085;53.004;6.770;2023-07-08T00:51:31;5.95;;;3.75;;
54177;SDS011;40085;53.004;6.770;2023-07-08T00:53:57;11.82;;;3.90;;
54177;SDS011;40085;53.004;6.770;2023-07-08T00:56:30;9.15;;;4.03;;
54177;SDS011;40085;53.004;6.770;2023-07-08T00:59:00;5.22;;;3.28;;
54177;SDS011;40085;53.004;6.770;2023-07-08T01:01:29;5.80;;;4.10;;
54177;SDS011;40085;53.004;6.770;2023-07-08T01:04:04;6.95;;;3.55;;
54177;SDS011;40085;53.004;6.770;2023-07-08T01:06:34;6.80;;;3.67;;
54177;SDS011;40085;53.004;6.770;2023-07-08T01:11:32;4.88;;;3.13;;
54177;SDS011;40085;53.004;6.770;2023-07-08T01:13:59;7.93;;;4.03;;
54177;SDS011;40085;53.004;6.770;2023-07-08T01:16:26;7.38;;;3.90;;
54177;SDS011;40085;53.004;6.770;2023-07-08T01:18:52;8.15;;;4.30;;
54177;SDS011;40085;53.004;6.770;2023-07-08T01:24:00;7.32;;;4.13;;
54177;SDS011;40085;53.004;6.770;2023-07-08T01:26:27;9.98;;;5.15;;
54177;SDS011;40085;53.004;6.770;2023-07-08T01:28:55;7.22;;;3.88;;
54177;SDS011;40085;53.004;6.770;2023-07-08T01:31:22;6.90;;;4.43;;
54177;SDS011;40085;53.004;6.770;2023-07-08T01:33:48;6.07;;;4.25;;
54177;SDS011;40085;53.004;6.770;2023-07-08T01:36:16;6.25;;;4.43;;
54177;SDS011;40085;53.004;6.770;2023-07-08T01:38:42;6.93;;;4.90;;
54177;SDS011;40085;53.004;6.770;2023-07-08T01:41:13;8.10;;;4.50;;
54177;SDS011;40085;53.004;6.770;2023-07-08T01:43:40;5.40;;;4.25;;
54177;SDS011;40085;53.004;6.770;2023-07-08T01:46:08;10.00;;;4.50;;
54177;SDS011;40085;53.004;6.770;2023-07-08T01:48:57;6.47;;;4.10;;
54177;SDS011;40085;53.004;6.770;2023-07-08T01:51:24;5.47;;;3.92;;
54177;SDS011;40085;53.004;6.770;2023-07-08T01:53:51;6.50;;;3.92;;
54177;SDS011;40085;53.004;6.770;2023-07-08T01:56:17;7.53;;;4.15;;
54177;SDS011;40085;53.004;6.770;2023-07-08T01:58:43;8.80;;;4.10;;
54177;SDS011;40085;53.004;6.770;2023-07-08T02:01:09;6.55;;;4.43;;
54177;SDS011;40085;53.004;6.770;2023-07-08T02:03:35;9.18;;;4.50;;
54177;SDS011;40085;53.004;6.770;2023-07-08T02:06:01;7.95;;;4.45;;
54177;SDS011;40085;53.004;6.770;2023-07-08T02:08:27;5.50;;;4.40;;
54177;SDS011;40085;53.004;6.770;2023-07-08T02:10:55;9.32;;;4.80;;
54177;SDS011;40085;53.004;6.770;2023-07-08T02:13:22;7.32;;;4.28;;
54177;SDS011;40085;53.004;6.770;2023-07-08T02:15:48;7.05;;;4.22;;
54177;SDS011;40085;53.004;6.770;2023-07-08T02:18:14;8.10;;;3.85;;
54177;SDS011;40085;53.004;6.770;2023-07-08T02:20:42;6.82;;;3.78;;
54177;SDS011;40085;53.004;6.770;2023-07-08T02:23:08;6.72;;;4.18;;
54177;SDS011;40085;53.004;6.770;2023-07-08T02:25:33;7.82;;;4.30;;
54177;SDS011;40085;53.004;6.770;2023-07-08T02:27:59;8.40;;;4.40;;
54177;SDS011;40085;53.004;6.770;2023-07-08T02:30:25;8.50;;;4.38;;
54177;SDS011;40085;53.004;6.770;2023-07-08T02:32:51;7.53;;;4.22;;
54177;SDS011;40085;53.004;6.770;2023-07-08T02:35:27;8.27;;;4.53;;
54177;SDS011;40085;53.004;6.770;2023-07-08T02:37:55;7.22;;;4.15;;
54177;SDS011;40085;53.004;6.770;2023-07-08T02:40:22;6.00;;;4.30;;
54177;SDS011;40085;53.004;6.770;2023-07-08T02:42:48;6.32;;;3.95;;
54177;SDS011;40085;53.004;6.770;2023-07-08T02:45:14;8.73;;;4.78;;
54177;SDS011;40085;53.004;6.770;2023-07-08T02:47:40;6.13;;;4.57;;
54177;SDS011;40085;53.004;6.770;2023-07-08T02:50:07;8.13;;;5.00;;
54177;SDS011;40085;53.004;6.770;2023-07-08T02:52:33;6.35;;;4.45;;
54177;SDS011;40085;53.004;6.770;2023-07-08T02:54:59;7.85;;;4.72;;
54177;SDS011;40085;53.004;6.770;2023-07-08T02:57:25;7.53;;;4.50;;
54177;SDS011;40085;53.004;6.770;2023-07-08T02:59:50;6.03;;;3.92;;
54177;SDS011;40085;53.004;6.770;2023-07-08T03:02:16;6.57;;;4.50;;
54177;SDS011;40085;53.004;6.770;2023-07-08T03:04:41;7.03;;;4.82;;
54177;SDS011;40085;53.004;6.770;2023-07-08T03:07:07;8.23;;;4.43;;
54177;SDS011;40085;53.004;6.770;2023-07-08T03:09:39;9.07;;;4.53;;
54177;SDS011;40085;53.004;6.770;2023-07-08T03:12:06;5.90;;;4.20;;
54177;SDS011;40085;53.004;6.770;2023-07-08T03:14:33;8.25;;;4.30;;
54177;SDS011;40085;53.004;6.770;2023-07-08T03:16:58;7.07;;;4.72;;
54177;SDS011;40085;53.004;6.770;2023-07-08T03:19:24;5.88;;;4.40;;
54177;SDS011;40085;53.004;6.770;2023-07-08T03:21:50;9.07;;;4.53;;
54177;SDS011;40085;53.004;6.770;2023-07-08T03:24:16;9.02;;;4.57;;
54177;SDS011;40085;53.004;6.770;2023-07-08T03:26:43;6.13;;;4.93;;
54177;SDS011;40085;53.004;6.770;2023-07-08T03:29:12;7.53;;;4.32;;
54177;SDS011;40085;53.004;6.770;2023-07-08T03:31:42;10.57;;;5.80;;
54177;SDS011;40085;53.004;6.770;2023-07-08T03:34:15;5.55;;;4.20;;
54177;SDS011;40085;53.004;6.770;2023-07-08T03:36:45;7.20;;;4.82;;
54177;SDS011;40085;53.004;6.770;2023-07-08T03:39:19;8.43;;;4.97;;
54177;SDS011;40085;53.004;6.770;2023-07-08T03:41:47;7.32;;;4.90;;
54177;SDS011;40085;53.004;6.770;2023-07-08T03:44:13;10.65;;;4.75;;
54177;SDS011;40085;53.004;6.770;2023-07-08T03:46:46;6.63;;;4.93;;
54177;SDS011;40085;53.004;6.770;2023-07-08T03:49:14;8.20;;;4.88;;
54177;SDS011;40085;53.004;6.770;2023-07-08T03:51:41;7.57;;;5.10;;
54177;SDS011;40085;53.004;6.770;2023-07-08T03:54:11;7.72;;;5.15;;
54177;SDS011;40085;53.004;6.770;2023-07-08T03:56:38;8.95;;;5.07;;
54177;SDS011;40085;53.004;6.770;2023-07-08T03:59:04;9.07;;;4.68;;
54177;SDS011;40085;53.004;6.770;2023-07-08T04:01:29;7.28;;;4.75;;
54177;SDS011;40085;53.004;6.770;2023-07-08T04:03:56;5.82;;;4.35;;
54177;SDS011;40085;53.004;6.770;2023-07-08T04:06:23;7.60;;;4.40;;
54177;SDS011;40085;53.004;6.770;2023-07-08T04:08:49;8.80;;;5.15;;
54177;SDS011;40085;53.004;6.770;2023-07-08T04:11:16;7.55;;;4.85;;
54177;SDS011;40085;53.004;6.770;2023-07-08T04:13:46;7.82;;;4.78;;
54177;SDS011;40085;53.004;6.770;2023-07-08T04:16:25;7.75;;;5.03;;
54177;SDS011;40085;53.004;6.770;2023-07-08T04:18:55;9.75;;;4.75;;
54177;SDS011;40085;53.004;6.770;2023-07-08T04:21:22;8.48;;;4.97;;
54177;SDS011;40085;53.004;6.770;2023-07-08T04:23:50;7.38;;;4.95;;
54177;SDS011;40085;53.004;6.770;2023-07-08T04:26:16;10.52;;;5.45;;
54177;SDS011;40085;53.004;6.770;2023-07-08T04:28:44;10.15;;;5.57;;
54177;SDS011;40085;53.004;6.770;2023-07-08T04:31:10;8.00;;;5.30;;
54177;SDS011;40085;53.004;6.770;2023-07-08T04:33:35;9.38;;;5.60;;
54177;SDS011;40085;53.004;6.770;2023-07-08T04:36:01;9.73;;;5.65;;
54177;SDS011;40085;53.004;6.770;2023-07-08T04:38:27;10.52;;;5.30;;
54177;SDS011;40085;53.004;6.770;2023-07-08T04:40:53;8.13;;;4.88;;
54177;SDS011;40085;53.004;6.770;2023-07-08T04:43:20;6.07;;;4.70;;
54177;SDS011;40085;53.004;6.770;2023-07-08T04:45:51;7.60;;;5.75;;
54177;SDS011;40085;53.004;6.770;2023-07-08T04:48:18;8.13;;;5.18;;
54177;SDS011;40085;53.004;6.770;2023-07-08T04:50:47;8.85;;;5.15;;
54177;SDS011;40085;53.004;6.770;2023-07-08T04:53:14;7.35;;;5.50;;
54177;SDS011;40085;53.004;6.770;2023-07-08T04:55:45;9.02;;;5.22;;
54177;SDS011;40085;53.004;6.770;2023-07-08T04:58:21;7.13;;;5.13;;
54177;SDS011;40085;53.004;6.770;2023-07-08T05:00:46;6.25;;;4.70;;
54177;SDS011;40085;53.004;6.770;2023-07-08T05:03:12;5.93;;;4.78;;
54177;SDS011;40085;53.004;6.770;2023-07-08T05:05:38;6.65;;;4.75;;
54177;SDS011;40085;53.004;6.770;2023-07-08T05:08:04;6.57;;;4.93;;
54177;SDS011;40085;53.004;6.770;2023-07-08T05:10:30;8.48;;;5.40;;
54177;SDS011;40085;53.004;6.770;2023-07-08T05:12:56;9.70;;;4.75;;
54177;SDS011;40085;53.004;6.770;2023-07-08T05:15:21;9.50;;;5.28;;
54177;SDS011;40085;53.004;6.770;2023-07-08T05:17:47;7.15;;;4.88;;
54177;SDS011;40085;53.004;6.770;2023-07-08T05:20:15;5.65;;;4.70;;
54177;SDS011;40085;53.004;6.770;2023-07-08T05:22:43;8.23;;;4.68;;
54177;SDS011;40085;53.004;6.770;2023-07-08T05:25:10;8.13;;;5.25;;
54177;SDS011;40085;53.004;6.770;2023-07-08T05:27:36;8.82;;;5.03;;
54177;SDS011;40085;53.004;6.770;2023-07-08T05:30:03;7.82;;;4.55;;
54177;SDS011;40085;53.004;6.770;2023-07-08T05:32:30;6.43;;;4.20;;
54177;SDS011;40085;53.004;6.770;2023-07-08T05:34:56;6.97;;;4.80;;
54177;SDS011;40085;53.004;6.770;2023-07-08T05:37:21;9.02;;;4.85;;
54177;SDS011;40085;53.004;6.770;2023-07-08T05:39:50;7.38;;;5.10;;
54177;SDS011;40085;53.004;6.770;2023-07-08T05:42:20;11.68;;;4.78;;
54177;SDS011;40085;53.004;6.770;2023-07-08T05:44:46;5.43;;;4.47;;
54177;SDS011;40085;53.004;6.770;2023-07-08T05:47:12;5.50;;;4.38;;
54177;SDS011;40085;53.004;6.770;2023-07-08T05:49:39;7.43;;;5.10;;
54177;SDS011;40085;53.004;6.770;2023-07-08T05:52:04;6.53;;;4.70;;
54177;SDS011;40085;53.004;6.770;2023-07-08T05:54:35;7.15;;;4.53;;
54177;SDS011;40085;53.004;6.770;2023-07-08T05:57:05;6.43;;;4.47;;
54177;SDS011;40085;53.004;6.770;2023-07-08T05:59:32;9.15;;;4.97;;
54177;SDS011;40085;53.004;6.770;2023-07-08T06:01:57;6.70;;;4.63;;
54177;SDS011;40085;53.004;6.770;2023-07-08T06:04:23;5.07;;;4.07;;
54177;SDS011;40085;53.004;6.770;2023-07-08T06:06:48;6.30;;;4.40;;
54177;SDS011;40085;53.004;6.770;2023-07-08T06:09:14;8.25;;;4.80;;
54177;SDS011;40085;53.004;6.770;2023-07-08T06:11:40;6.40;;;4.72;;
54177;SDS011;40085;53.004;6.770;2023-07-08T06:14:05;7.97;;;4.22;;
54177;SDS011;40085;53.004;6.770;2023-07-08T06:16:31;5.88;;;4.20;;
54177;SDS011;40085;53.004;6.770;2023-07-08T06:18:57;6.80;;;4.32;;
54177;SDS011;40085;53.004;6.770;2023-07-08T06:21:23;4.57;;;3.72;;
54177;SDS011;40085;53.004;6.770;2023-07-08T06:23:48;5.43;;;3.58;;
54177;SDS011;40085;53.004;6.770;2023-07-08T06:26:14;6.57;;;3.75;;
54177;SDS011;40085;53.004;6.770;2023-07-08T06:28:40;6.00;;;4.07;;
54177;SDS011;40085;53.004;6.770;2023-07-08T06:31:05;5.38;;;3.92;;
54177;SDS011;40085;53.004;6.770;2023-07-08T06:33:31;6.80;;;3.67;;
54177;SDS011;40085;53.004;6.770;2023-07-08T06:35:57;6.28;;;4.05;;
54177;SDS011;40085;53.004;6.770;2023-07-08T06:38:23;5.55;;;3.92;;
54177;SDS011;40085;53.004;6.770;2023-07-08T06:40:48;6.55;;;4.05;;
54177;SDS011;40085;53.004;6.770;2023-07-08T06:43:14;6.88;;;4.22;;
54177;SDS011;40085;53.004;6.770;2023-07-08T06:45:40;3.92;;;3.17;;
54177;SDS011;40085;53.004;6.770;2023-07-08T06:48:07;4.97;;;3.60;;
54177;SDS011;40085;53.004;6.770;2023-07-08T06:50:33;6.47;;;3.70;;
54177;SDS011;40085;53.004;6.770;2023-07-08T06:52:58;6.03;;;3.67;;
54177;SDS011;40085;53.004;6.770;2023-07-08T06:55:24;6.22;;;3.67;;
54177;SDS011;40085;53.004;6.770;2023-07-08T06:57:50;7.32;;;4.18;;
54177;SDS011;40085;53.004;6.770;2023-07-08T07:00:15;5.30;;;3.83;;
54177;SDS011;40085;53.004;6.770;2023-07-08T07:02:41;6.55;;;3.50;;
54177;SDS011;40085;53.004;6.770;2023-07-08T07:05:08;6.60;;;3.83;;
54177;SDS011;40085;53.004;6.770;2023-07-08T07:07:34;5.78;;;3.88;;
54177;SDS011;40085;53.004;6.770;2023-07-08T07:10:00;11.02;;;3.42;;
54177;SDS011;40085;53.004;6.770;2023-07-08T07:12:26;4.80;;;3.40;;
54177;SDS011;40085;53.004;6.770;2023-07-08T07:14:52;7.05;;;3.65;;
54177;SDS011;40085;53.004;6.770;2023-07-08T07:17:21;7.57;;;3.90;;
54177;SDS011;40085;53.004;6.770;2023-07-08T07:19:48;7.38;;;3.65;;
54177;SDS011;40085;53.004;6.770;2023-07-08T07:22:14;6.10;;;3.97;;
54177;SDS011;40085;53.004;6.770;2023-07-08T07:24:40;6.40;;;4.07;;
54177;SDS011;40085;53.004;6.770;2023-07-08T07:27:05;9.43;;;3.80;;
54177;SDS011;40085;53.004;6.770;2023-07-08T07:29:40;4.40;;;3.72;;
54177;SDS011;40085;53.004;6.770;2023-07-08T07:32:16;7.97;;;3.88;;
54177;SDS011;40085;53.004;6.770;2023-07-08T07:34:42;5.97;;;3.40;;
54177;SDS011;40085;53.004;6.770;2023-07-08T07:37:12;11.05;;;3.65;;
54177;SDS011;40085;53.004;6.770;2023-07-08T07:39:38;5.35;;;3.90;;
54177;SDS011;40085;53.004;6.770;2023-07-08T07:42:05;6.28;;;3.67;;
54177;SDS011;40085;53.004;6.770;2023-07-08T07:44:30;5.38;;;3.55;;
54177;SDS011;40085;53.004;6.770;2023-07-08T07:46:56;5.32;;;3.45;;
54177;SDS011;40085;53.004;6.770;2023-07-08T07:49:21;8.02;;;3.45;;
54177;SDS011;40085;53.004;6.770;2023-07-08T07:51:47;5.25;;;3.28;;
54177;SDS011;40085;53.004;6.770;2023-07-08T07:54:13;4.75;;;3.20;;
54177;SDS011;40085;53.004;6.770;2023-07-08T07:56:40;7.07;;;3.47;;
54177;SDS011;40085;53.004;6.770;2023-07-08T07:59:05;5.15;;;3.15;;
54177;SDS011;40085;53.004;6.770;2023-07-08T08:01:31;4.07;;;2.97;;
54177;SDS011;40085;53.004;6.770;2023-07-08T08:03:56;4.95;;;3.42;;
54177;SDS011;40085;53.004;6.770;2023-07-08T08:06:22;6.22;;;3.40;;
54177;SDS011;40085;53.004;6.770;2023-07-08T08:08:48;4.57;;;2.80;;
54177;SDS011;40085;53.004;6.770;2023-07-08T08:11:14;4.40;;;3.10;;
54177;SDS011;40085;53.004;6.770;2023-07-08T08:13:40;8.25;;;3.20;;
54177;SDS011;40085;53.004;6.770;2023-07-08T08:16:06;4.88;;;2.67;;
54177;SDS011;40085;53.004;6.770;2023-07-08T08:18:31;4.53;;;3.53;;
54177;SDS011;40085;53.004;6.770;2023-07-08T08:20:57;5.18;;;2.92;;
54177;SDS011;40085;53.004;6.770;2023-07-08T08:23:22;7.07;;;2.95;;
54177;SDS011;40085;53.004;6.770;2023-07-08T08:25:49;4.10;;;3.03;;
54177;SDS011;40085;53.004;6.770;2023-07-08T08:28:15;5.05;;;3.03;;
54177;SDS011;40085;53.004;6.770;2023-07-08T08:30:41;4.05;;;2.65;;
54177;SDS011;40085;53.004;6.770;2023-07-08T08:33:11;4.07;;;2.63;;
54177;SDS011;40085;53.004;6.770;2023-07-08T08:35:37;3.72;;;2.97;;
54177;SDS011;40085;53.004;6.770;2023-07-08T08:38:03;9.45;;;2.75;;
54177;SDS011;40085;53.004;6.770;2023-07-08T08:40:29;7.45;;;3.38;;
54177;SDS011;40085;53.004;6.770;2023-07-08T08:43:02;3.75;;;2.55;;
54177;SDS011;40085;53.004;6.770;2023-07-08T08:45:32;8.05;;;3.45;;
54177;SDS011;40085;53.004;6.770;2023-07-08T08:48:04;3.88;;;2.95;;
54177;SDS011;40085;53.004;6.770;2023-07-08T08:50:44;5.55;;;2.95;;
54177;SDS011;40085;53.004;6.770;2023-07-08T08:53:19;8.10;;;2.78;;
54177;SDS011;40085;53.004;6.770;2023-07-08T08:55:49;3.25;;;2.33;;
54177;SDS011;40085;53.004;6.770;2023-07-08T08:58:30;3.88;;;2.97;;
54177;SDS011;40085;53.004;6.770;2023-07-08T09:01:04;7.95;;;3.35;;
54177;SDS011;40085;53.004;6.770;2023-07-08T09:03:56;5.05;;;3.15;;
54177;SDS011;40085;53.004;6.770;2023-07-08T09:06:27;4.75;;;2.85;;
54177;SDS011;40085;53.004;6.770;2023-07-08T09:08:56;4.22;;;2.85;;
54177;SDS011;40085;53.004;6.770;2023-07-08T09:14:12;6.10;;;2.88;;
54177;SDS011;40085;53.004;6.770;2023-07-08T09:17:41;4.15;;;2.65;;
54177;SDS011;40085;53.004;6.770;2023-07-08T09:20:30;3.38;;;2.47;;
54177;SDS011;40085;53.004;6.770;2023-07-08T09:22:51;4.40;;;3.10;;
54177;SDS011;40085;53.004;6.770;2023-07-08T09:25:29;3.38;;;3.00;;
54177;SDS011;40085;53.004;6.770;2023-07-08T09:28:02;7.10;;;3.20;;
54177;SDS011;40085;53.004;6.770;2023-07-08T09:30:28;4.32;;;2.90;;
54177;SDS011;40085;53.004;6.770;2023-07-08T09:32:55;3.55;;;2.40;;
54177;SDS011;40085;53.004;6.770;2023-07-08T09:35:25;5.45;;;2.72;;
54177;SDS011;40085;53.004;6.770;2023-07-08T09:37:53;4.15;;;2.72;;
54177;SDS011;40085;53.004;6.770;2023-07-08T09:40:28;5.57;;;3.05;;
54177;SDS011;40085;53.004;6.770;2023-07-08T09:43:01;3.95;;;2.65;;
54177;SDS011;40085;53.004;6.770;2023-07-08T09:45:28;3.72;;;2.38;;
54177;SDS011;40085;53.004;6.770;2023-07-08T09:48:13;5.78;;;2.97;;
54177;SDS011;40085;53.004;6.770;2023-07-08T09:50:43;3.78;;;3.08;;
54177;SDS011;40085;53.004;6.770;2023-07-08T09:53:13;4.53;;;2.78;;
54177;SDS011;40085;53.004;6.770;2023-07-08T09:55:39;7.38;;;3.33;;
54177;SDS011;40085;53.004;6.770;2023-07-08T09:58:08;8.80;;;2.85;;
54177;SDS011;40085;53.004;6.770;2023-07-08T10:00:39;5.07;;;3.53;;
54177;SDS011;40085;53.004;6.770;2023-07-08T10:03:11;7.75;;;2.97;;
54177;SDS011;40085;53.004;6.770;2023-07-08T10:05:47;7.72;;;3.10;;
54177;SDS011;40085;53.004;6.770;2023-07-08T10:08:16;5.25;;;3.20;;
54177;SDS011;40085;53.004;6.770;2023-07-08T10:10:43;3.70;;;2.78;;
54177;SDS011;40085;53.004;6.770;2023-07-08T10:13:25;5.38;;;3.10;;
54177;SDS011;40085;53.004;6.770;2023-07-08T10:18:47;3.90;;;2.63;;
54177;SDS011;40085;53.004;6.770;2023-07-08T10:23:43;4.60;;;2.92;;
54177;SDS011;40085;53.004;6.770;2023-07-08T10:34:10;6.80;;;3.17;;
54177;SDS011;40085;53.004;6.770;2023-07-08T10:36:51;6.53;;;3.33;;
54177;SDS011;40085;53.004;6.770;2023-07-08T10:39:33;4.25;;;2.90;;
54177;SDS011;40085;53.004;6.770;2023-07-08T10:42:29;4.43;;;3.20;;
54177;SDS011;40085;53.004;6.770;2023-07-08T10:45:20;4.75;;;3.40;;
54177;SDS011;40085;53.004;6.770;2023-07-08T10:48:04;4.65;;;3.25;;
54177;SDS011;40085;53.004;6.770;2023-07-08T17:59:28;9.57;;;5.90;;
54177;SDS011;40085;53.004;6.770;2023-07-08T18:01:54;9.93;;;6.07;;
54177;SDS011;40085;53.004;6.770;2023-07-08T18:04:20;6.35;;;4.82;;
54177;SDS011;40085;53.004;6.770;2023-07-08T18:06:46;6.97;;;4.85;;
54177;SDS011;40085;53.004;6.770;2023-07-08T18:09:11;11.43;;;5.57;;
54177;SDS011;40085;53.004;6.770;2023-07-08T18:11:39;7.78;;;5.00;;
54177;SDS011;40085;53.004;6.770;2023-07-08T18:14:09;6.78;;;4.70;;
54177;SDS011;40085;53.004;6.770;2023-07-08T18:16:35;6.32;;;4.90;;
54177;SDS011;40085;53.004;6.770;2023-07-08T18:19:01;7.25;;;4.90;;
54177;SDS011;40085;53.004;6.770;2023-07-08T18:21:26;9.93;;;4.97;;
54177;SDS011;40085;53.004;6.770;2023-07-08T18:23:53;7.22;;;5.13;;
54177;SDS011;40085;53.004;6.770;2023-07-08T18:26:23;7.28;;;4.68;;
54177;SDS011;40085;53.004;6.770;2023-07-08T18:28:50;7.20;;;5.35;;
54177;SDS011;40085;53.004;6.770;2023-07-08T18:31:18;8.05;;;4.80;;
54177;SDS011;40085;53.004;6.770;2023-07-08T18:33:54;7.90;;;4.88;;
54177;SDS011;40085;53.004;6.770;2023-07-08T18:36:19;8.68;;;4.82;;
54177;SDS011;40085;53.004;6.770;2023-07-08T18:38:45;6.70;;;4.57;;
54177;SDS011;40085;53.004;6.770;2023-07-08T18:41:21;6.45;;;4.35;;
54177;SDS011;40085;53.004;6.770;2023-07-08T18:43:49;8.70;;;5.57;;
54177;SDS011;40085;53.004;6.770;2023-07-08T18:46:15;9.32;;;5.40;;
54177;SDS011;40085;53.004;6.770;2023-07-08T18:48:41;6.90;;;4.45;;
54177;SDS011;40085;53.004;6.770;2023-07-08T18:51:09;9.38;;;4.80;;
54177;SDS011;40085;53.004;6.770;2023-07-08T18:53:40;6.90;;;4.07;;
54177;SDS011;40085;53.004;6.770;2023-07-08T18:56:13;6.22;;;4.30;;
54177;SDS011;40085;53.004;6.770;2023-07-08T18:58:41;7.10;;;4.55;;
54177;SDS011;40085;53.004;6.770;2023-07-08T19:01:12;6.07;;;4.68;;
54177;SDS011;40085;53.004;6.770;2023-07-08T19:03:52;7.72;;;4.65;;
54177;SDS011;40085;53.004;6.770;2023-07-08T19:06:18;8.85;;;5.10;;
54177;SDS011;40085;53.004;6.770;2023-07-08T19:08:45;7.53;;;4.88;;
54177;SDS011;40085;53.004;6.770;2023-07-08T19:11:26;7.05;;;4.53;;
54177;SDS011;40085;53.004;6.770;2023-07-08T19:13:53;6.95;;;5.07;;
54177;SDS011;40085;53.004;6.770;2023-07-08T19:16:19;8.60;;;4.70;;
54177;SDS011;40085;53.004;6.770;2023-07-08T19:18:46;6.95;;;4.80;;
54177;SDS011;40085;53.004;6.770;2023-07-08T19:21:15;6.32;;;4.47;;
54177;SDS011;40085;53.004;6.770;2023-07-08T19:23:46;7.45;;;5.05;;
54177;SDS011;40085;53.004;6.770;2023-07-08T19:26:15;6.47;;;4.75;;
54177;SDS011;40085;53.004;6.770;2023-07-08T19:28:43;12.30;;;5.13;;
54177;SDS011;40085;53.004;6.770;2023-07-08T19:31:20;7.35;;;5.03;;
54177;SDS011;40085;53.004;6.770;2023-07-08T19:33:54;9.90;;;4.65;;
54177;SDS011;40085;53.004;6.770;2023-07-08T19:36:20;8.55;;;4.50;;
54177;SDS011;40085;53.004;6.770;2023-07-08T19:38:49;7.78;;;4.35;;
54177;SDS011;40085;53.004;6.770;2023-07-08T19:41:15;7.57;;;4.78;;
54177;SDS011;40085;53.004;6.770;2023-07-08T19:43:44;12.23;;;5.10;;
54177;SDS011;40085;53.004;6.770;2023-07-08T19:46:13;10.48;;;5.03;;
54177;SDS011;40085;53.004;6.770;2023-07-08T19:48:40;10.07;;;5.13;;
54177;SDS011;40085;53.004;6.770;2023-07-08T19:51:10;7.03;;;4.30;;
54177;SDS011;40085;53.004;6.770;2023-07-08T19:53:36;8.75;;;5.15;;
54177;SDS011;40085;53.004;6.770;2023-07-08T19:56:15;7.38;;;4.53;;
54177;SDS011;40085;53.004;6.770;2023-07-08T19:58:43;6.85;;;4.90;;
54177;SDS011;40085;53.004;6.770;2023-07-08T20:01:09;8.75;;;4.80;;
54177;SDS011;40085;53.004;6.770;2023-07-08T20:03:35;7.53;;;4.85;;
54177;SDS011;40085;53.004;6.770;2023-07-08T20:06:23;9.02;;;4.45;;
54177;SDS011;40085;53.004;6.770;2023-07-08T20:08:50;7.82;;;4.63;;
54177;SDS011;40085;53.004;6.770;2023-07-08T20:11:16;8.98;;;5.05;;
54177;SDS011;40085;53.004;6.770;2023-07-08T20:13:42;7.95;;;4.97;;
54177;SDS011;40085;53.004;6.770;2023-07-08T20:16:25;10.15;;;5.47;;
54177;SDS011;40085;53.004;6.770;2023-07-08T20:18:51;6.95;;;5.07;;
54177;SDS011;40085;53.004;6.770;2023-07-08T20:21:20;7.25;;;5.20;;
54177;SDS011;40085;53.004;6.770;2023-07-08T20:23:46;6.13;;;4.78;;
54177;SDS011;40085;53.004;6.770;2023-07-08T20:26:26;9.02;;;4.60;;
54177;SDS011;40085;53.004;6.770;2023-07-08T20:28:53;7.45;;;5.28;;
54177;SDS011;40085;53.004;6.770;2023-07-08T20:31:19;6.93;;;4.85;;
54177;SDS011;40085;53.004;6.770;2023-07-08T20:33:46;6.50;;;4.95;;
54177;SDS011;40085;53.004;6.770;2023-07-08T20:36:13;7.13;;;4.93;;
54177;SDS011;40085;53.004;6.770;2023-07-08T20:38:40;8.75;;;5.03;;
54177;SDS011;40085;53.004;6.770;2023-07-08T20:41:06;8.32;;;5.10;;
54177;SDS011;40085;53.004;6.770;2023-07-08T20:43:32;10.43;;;5.45;;
54177;SDS011;40085;53.004;6.770;2023-07-08T20:45:59;11.18;;;5.18;;
54177;SDS011;40085;53.004;6.770;2023-07-08T20:48:28;13.95;;;5.50;;
54177;SDS011;40085;53.004;6.770;2023-07-08T20:50:56;7.28;;;4.78;;
54177;SDS011;40085;53.004;6.770;2023-07-08T20:53:22;7.28;;;5.40;;
54177;SDS011;40085;53.004;6.770;2023-07-08T20:55:48;9.68;;;5.65;;
54177;SDS011;40085;53.004;6.770;2023-07-08T20:58:15;7.07;;;4.70;;
54177;SDS011;40085;53.004;6.770;2023-07-08T21:00:43;8.35;;;5.50;;
54177;SDS011;40085;53.004;6.770;2023-07-08T21:03:13;9.00;;;6.00;;
54177;SDS011;40085;53.004;6.770;2023-07-08T21:05:49;8.60;;;5.68;;
54177;SDS011;40085;53.004;6.770;2023-07-08T21:08:25;8.00;;;5.75;;
54177;SDS011;40085;53.004;6.770;2023-07-08T21:10:57;9.47;;;6.23;;
54177;SDS011;40085;53.004;6.770;2023-07-08T21:13:22;7.00;;;5.43;;
54177;SDS011;40085;53.004;6.770;2023-07-08T21:15:48;11.25;;;5.78;;
54177;SDS011;40085;53.004;6.770;2023-07-08T21:18:15;8.75;;;5.45;;
54177;SDS011;40085;53.004;6.770;2023-07-08T21:20:44;12.52;;;5.85;;
54177;SDS011;40085;53.004;6.770;2023-07-08T21:23:17;6.80;;;5.70;;
54177;SDS011;40085;53.004;6.770;2023-07-08T21:25:50;8.85;;;5.63;;
54177;SDS011;40085;53.004;6.770;2023-07-08T21:28:27;8.80;;;5.97;;
54177;SDS011;40085;53.004;6.770;2023-07-08T21:30:56;8.57;;;5.22;;
54177;SDS011;40085;53.004;6.770;2023-07-08T21:33:22;9.57;;;5.88;;
54177;SDS011;40085;53.004;6.770;2023-07-08T21:35:49;9.70;;;6.18;;
54177;SDS011;40085;53.004;6.770;2023-07-08T21:38:16;9.25;;;6.15;;
54177;SDS011;40085;53.004;6.770;2023-07-08T21:40:52;8.65;;;5.70;;
54177;SDS011;40085;53.004;6.770;2023-07-08T21:43:22;10.68;;;6.40;;
54177;SDS011;40085;53.004;6.770;2023-07-08T21:45:49;7.72;;;6.10;;
54177;SDS011;40085;53.004;6.770;2023-07-08T21:48:16;7.53;;;5.28;;
54177;SDS011;40085;53.004;6.770;2023-07-08T21:50:53;10.43;;;6.00;;
54177;SDS011;40085;53.004;6.770;2023-07-08T21:53:27;14.75;;;6.32;;
54177;SDS011;40085;53.004;6.770;2023-07-08T21:55:55;9.93;;;6.15;;
54177;SDS011;40085;53.004;6.770;2023-07-08T21:58:21;9.52;;;6.78;;
54177;SDS011;40085;53.004;6.770;2023-07-08T22:00:47;8.27;;;6.85;;
54177;SDS011;40085;53.004;6.770;2023-07-08T22:03:14;9.18;;;6.70;;
54177;SDS011;40085;53.004;6.770;2023-07-08T22:05:42;10.05;;;5.95;;
54177;SDS011;40085;53.004;6.770;2023-07-08T22:08:15;10.75;;;5.93;;
54177;SDS011;40085;53.004;6.770;2023-07-08T22:10:42;9.88;;;6.85;;
54177;SDS011;40085;53.004;6.770;2023-07-08T22:13:23;15.43;;;7.20;;
54177;SDS011;40085;53.004;6.770;2023-07-08T22:15:52;11.48;;;7.15;;
54177;SDS011;40085;53.004;6.770;2023-07-08T22:18:23;8.30;;;6.03;;
54177;SDS011;40085;53.004;6.770;2023-07-08T22:20:54;9.35;;;7.50;;
54177;SDS011;40085;53.004;6.770;2023-07-08T22:23:25;8.82;;;6.90;;
54177;SDS011;40085;53.004;6.770;2023-07-08T22:25:51;9.52;;;7.03;;
54177;SDS011;40085;53.004;6.770;2023-07-08T22:28:17;9.02;;;6.70;;